Mexico, Missouri
Current Conditions -  °F | °C
As of 4:54 PM on Thursday 20 Nov 2014 (Local Time) from KCOU Reporting Station
Clear Clear  
Wind Chill: 26°   Ceiling: Unl
Heat Index: 32°   Visibility: 10mi
Dew Point: 18°   Wind: 7mph
Humidity: 56%   Direction: 350°N
Pressure: 30.2"   Gusts: NA
Location:  39.17°N, 91.89°W
Report Text: KCOU 202254Z 35006KT 10SM CLR 00/M08 A3020 RMK AO2 SLP238 T00001078
Loading
Personal Weather Stations






























Interactive Weather Map New forecast layout! Learn more

10-Day Weather Forecast

Advertisements
Track Severe Weather on mobile